Time;durP1;ratioP1;P1;durP2;ratioP2;P2;SDS_P1;SDS_P2;PMS_P1;PMS_P2;Temp;Humidity;BMP_temperature;BMP_pressure;BME280_temperature;BME280_humidity;BME280_pressure;Samples;Min_cycle;Max_cycle;Signal;HPM_P1;HPM_P2
2022/11/30 00:01:21;;;;;;;;;;;;;;;18.44;66.18;101616.03;7405437;19;1726;-68
2022/11/30 00:03:49;;;;;;;;;;;;;;;18.43;66.57;101625.03;7406726;19;1312;-70
2022/11/30 00:06:21;;;;;;;;;;;;;;;18.36;66.50;101626.41;7406730;19;1545;-68
2022/11/30 00:08:50;;;;;;;;;;;;;;;18.33;66.56;101609.75;7408083;19;1494;-69
2022/11/30 00:11:20;;;;;;;;;;;;;;;18.29;66.25;101631.38;7404212;19;1688;-68
2022/11/30 00:13:51;;;;;;;;;;;;;;;18.28;66.02;101652.88;7405818;19;1648;-70
2022/11/30 00:16:19;;;;;;;;;;;;;;;18.26;66.31;101634.28;7406771;19;1694;-68
2022/11/30 00:18:47;;;;;;;;;;;;;;;18.27;66.29;101652.03;7406135;19;1598;-69
2022/11/30 00:21:16;;;;;;;;;;;;;;;18.20;65.99;101634.69;7404736;19;1558;-68
2022/11/30 00:23:45;;;;;;;;;;;;;;;18.21;66.00;101635.56;7406560;19;1483;-69
2022/11/30 00:26:15;;;;;;;;;;;;;;;18.17;65.82;101634.94;7407323;19;1598;-70
2022/11/30 00:28:44;;;;;;;;;;;;;;;18.19;65.51;101646.38;7403354;19;1791;-70
2022/11/30 00:31:16;;;;;;;;;;;;;;;18.15;65.61;101650.25;7404495;19;1710;-70
2022/11/30 00:33:45;;;;;;;;;;;;;;;18.13;65.71;101638.78;7403302;19;1859;-69
2022/11/30 00:36:15;;;;;;;;;;;;;;;18.13;65.75;101644.13;7405801;19;1627;-70
2022/11/30 00:38:44;;;;;;;;;;;;;;;18.10;65.19;101620.25;7406059;19;1467;-70
2022/11/30 00:41:12;;;;;;;;;;;;;;;18.10;65.37;101625.59;7406673;19;1517;-70
2022/11/30 00:43:41;;;;;;;;;;;;;;;18.15;65.17;101633.34;7403515;19;1644;-69
2022/11/30 00:46:10;;;;;;;;;;;;;;;18.07;65.25;101648.09;7406120;19;1366;-69
2022/11/30 00:48:42;;;;;;;;;;;;;;;18.01;65.86;101621.78;7403807;19;1546;-71
2022/11/30 00:51:12;;;;;;;;;;;;;;;18.35;63.95;101618.53;7405330;19;1672;-68
2022/11/30 00:53:40;;;;;;;;;;;;;;;19.48;62.15;101618.13;7401967;19;1853;-70
2022/11/30 00:56:09;;;;;;;;;;;;;;;20.39;59.71;101610.16;7405760;19;1743;-70
2022/11/30 00:58:38;;;;;;;;;;;;;;;20.33;59.63;101605.28;7403427;19;1581;-70
2022/11/30 01:01:06;;;;;;;;;;;;;;;20.17;60.38;101611.88;7399680;19;1668;-70
2022/11/30 01:03:35;;;;;;;;;;;;;;;20.46;60.09;101624.81;7405010;19;1494;-70
2022/11/30 01:06:07;;;;;;;;;;;;;;;20.49;59.92;101589.63;7403570;19;1462;-68
2022/11/30 01:08:36;;;;;;;;;;;;;;;20.16;59.92;101599.47;7404034;19;1533;-69
2022/11/30 01:11:08;;;;;;;;;;;;;;;19.48;61.75;101602.03;7403391;19;1569;-70
2022/11/30 01:13:37;;;;;;;;;;;;;;;18.93;63.00;101614.28;7402180;19;1866;-70
2022/11/30 01:16:10;;;;;;;;;;;;;;;18.66;63.31;101595.69;7404212;19;1664;-70
2022/11/30 01:18:38;;;;;;;;;;;;;;;18.54;63.70;101605.47;7402985;19;1577;-70
2022/11/30 01:21:10;;;;;;;;;;;;;;;18.46;63.79;101605.19;7402953;19;1554;-70
2022/11/30 01:23:38;;;;;;;;;;;;;;;18.37;63.80;101595.16;7404970;19;1394;-70
2022/11/30 01:26:06;;;;;;;;;;;;;;;18.32;63.58;101587.44;7404556;19;1648;-70
2022/11/30 01:28:35;;;;;;;;;;;;;;;18.30;63.48;101576.00;7403924;19;1739;-68
2022/11/30 01:31:04;;;;;;;;;;;;;;;18.30;63.51;101589.38;7402057;19;1590;-69
2022/11/30 01:33:33;;;;;;;;;;;;;;;18.24;63.48;101595.19;7401366;19;1853;-70
2022/11/30 01:36:02;;;;;;;;;;;;;;;18.21;63.48;101590.91;7402436;19;1679;-68
2022/11/30 01:38:35;;;;;;;;;;;;;;;18.21;63.28;101582.88;7404170;19;1557;-69
2022/11/30 01:41:04;;;;;;;;;;;;;;;18.17;63.68;101556.44;7403004;19;1688;-70
2022/11/30 01:43:39;;;;;;;;;;;;;;;18.17;63.24;101565.31;7400267;19;1625;-70
2022/11/30 01:46:19;;;;;;;;;;;;;;;18.14;63.40;101556.66;7403017;19;1747;-70
2022/11/30 01:48:56;;;;;;;;;;;;;;;18.07;63.67;101559.78;7401338;19;1687;-70
2022/11/30 01:51:25;;;;;;;;;;;;;;;18.11;63.38;101565.78;7402148;19;1601;-70
2022/11/30 01:53:56;;;;;;;;;;;;;;;18.02;63.53;101559.22;7399920;19;1884;-70
2022/11/30 01:56:25;;;;;;;;;;;;;;;18.00;63.42;101563.84;7404817;19;1676;-70
2022/11/30 01:58:53;;;;;;;;;;;;;;;18.00;63.67;101573.69;7402649;19;1328;-70
2022/11/30 02:01:21;;;;;;;;;;;;;;;17.96;63.22;101567.69;7400141;19;1620;-69
2022/11/30 02:03:54;;;;;;;;;;;;;;;17.98;63.31;101605.06;7404654;19;1645;-70
2022/11/30 02:06:23;;;;;;;;;;;;;;;17.95;63.20;101599.94;7408995;19;1632;-70
2022/11/30 02:08:53;;;;;;;;;;;;;;;17.88;64.52;101589.66;7410410;19;1526;-70
2022/11/30 02:11:25;;;;;;;;;;;;;;;18.38;62.47;101594.19;7409614;19;1635;-69
2022/11/30 02:13:59;;;;;;;;;;;;;;;19.38;60.30;101587.63;7405277;19;1857;-71
2022/11/30 02:16:32;;;;;;;;;;;;;;;20.07;58.46;101597.50;7409899;19;1542;-70
2022/11/30 02:19:06;;;;;;;;;;;;;;;20.22;58.37;101577.47;7408976;19;1691;-71
2022/11/30 02:21:42;;;;;;;;;;;;;;;20.34;58.49;101598.97;7405252;19;1459;-71
2022/11/30 02:24:20;;;;;;;;;;;;;;;20.30;58.52;101606.41;7409279;19;1818;-71
2022/11/30 02:27:06;;;;;;;;;;;;;;;20.30;58.61;101616.31;7410914;19;1582;-71
2022/11/30 02:29:39;;;;;;;;;;;;;;;19.78;59.11;101611.41;7409095;19;1682;-70
2022/11/30 02:32:10;;;;;;;;;;;;;;;19.10;60.57;101620.19;7407661;19;1617;-71
2022/11/30 02:34:39;;;;;;;;;;;;;;;18.68;61.78;101609.81;7408037;19;1633;-70
2022/11/30 02:37:10;;;;;;;;;;;;;;;18.55;61.67;101614.41;7409070;19;1676;-71
2022/11/30 02:39:39;;;;;;;;;;;;;;;18.38;62.12;101600.41;7407911;19;1573;-71
2022/11/30 02:42:08;;;;;;;;;;;;;;;18.34;62.31;101598.03;7406610;19;1613;-70
2022/11/30 02:44:39;;;;;;;;;;;;;;;18.26;61.80;101601.28;7407476;19;1698;-70
2022/11/30 02:47:13;;;;;;;;;;;;;;;18.24;62.11;101621.94;7409049;19;1743;-70
2022/11/30 02:49:45;;;;;;;;;;;;;;;18.18;62.16;101603.66;7407134;19;1630;-71
2022/11/30 02:52:14;;;;;;;;;;;;;;;18.14;62.13;101600.34;7408888;19;1442;-69
2022/11/30 02:54:43;;;;;;;;;;;;;;;18.09;62.34;101587.28;7406638;19;1263;-69
2022/11/30 02:57:11;;;;;;;;;;;;;;;18.08;61.84;101595.41;7407914;19;1554;-71
2022/11/30 02:59:42;;;;;;;;;;;;;;;18.04;62.21;101605.47;7407112;19;1665;-70
2022/11/30 03:02:11;;;;;;;;;;;;;;;18.05;61.76;101585.78;7397303;19;1613;-72
2022/11/30 03:04:39;;;;;;;;;;;;;;;18.03;62.41;101584.19;7406747;19;1282;-72
2022/11/30 03:07:07;;;;;;;;;;;;;;;18.03;62.00;101605.63;7406944;19;1438;-71
2022/11/30 03:09:36;;;;;;;;;;;;;;;18.00;61.88;101611.16;7405965;19;1526;-71
2022/11/30 03:12:04;;;;;;;;;;;;;;;17.98;62.01;101610.41;7407689;19;1376;-71
2022/11/30 03:14:32;;;;;;;;;;;;;;;17.94;62.01;101622.31;7404143;19;1853;-71
2022/11/30 03:17:04;;;;;;;;;;;;;;;17.90;62.12;101608.28;7403399;19;1451;-71
2022/11/30 03:19:32;;;;;;;;;;;;;;;17.89;62.68;101617.28;7406696;19;1526;-71
2022/11/30 03:22:02;;;;;;;;;;;;;;;18.59;60.89;101619.41;7407882;19;1512;-71
2022/11/30 03:24:30;;;;;;;;;;;;;;;19.62;58.59;101632.31;7407008;19;1636;-71
2022/11/30 03:26:58;;;;;;;;;;;;;;;20.21;56.89;101616.06;7406655;19;1700;-71
2022/11/30 03:29:27;;;;;;;;;;;;;;;20.22;57.15;101609.69;7407130;19;1327;-71
2022/11/30 03:31:55;;;;;;;;;;;;;;;20.13;57.39;101617.63;7406752;19;1673;-71
2022/11/30 03:34:27;;;;;;;;;;;;;;;20.36;57.27;101619.34;7405453;19;1911;-71
2022/11/30 03:36:56;;;;;;;;;;;;;;;20.43;57.00;101617.00;7405521;19;1652;-71
2022/11/30 03:39:25;;;;;;;;;;;;;;;19.82;57.79;101618.22;7406678;19;1562;-71
2022/11/30 03:41:53;;;;;;;;;;;;;;;19.10;59.41;101612.16;7407316;19;1669;-71
2022/11/30 03:44:22;;;;;;;;;;;;;;;18.67;60.61;101616.16;7405651;19;1632;-70
2022/11/30 03:46:52;;;;;;;;;;;;;;;18.49;60.93;101605.81;7405361;19;1590;-70
2022/11/30 03:49:21;;;;;;;;;;;;;;;18.37;61.18;101608.56;7406644;19;1644;-71
2022/11/30 03:51:52;;;;;;;;;;;;;;;18.30;61.67;101608.13;7405117;19;1450;-65
2022/11/30 03:54:20;;;;;;;;;;;;;;;18.29;61.28;101607.28;7404971;19;1855;-73
2022/11/30 03:56:48;;;;;;;;;;;;;;;18.27;61.58;101606.53;7407134;19;1573;-75
2022/11/30 03:59:17;;;;;;;;;;;;;;;18.28;61.29;101639.50;7403221;19;1723;-74
2022/11/30 04:01:48;;;;;;;;;;;;;;;18.19;61.62;101614.25;7404330;19;1601;-73
2022/11/30 04:04:16;;;;;;;;;;;;;;;18.06;62.35;101610.72;7406111;19;1838;-70
2022/11/30 04:06:45;;;;;;;;;;;;;;;17.95;63.49;101616.84;7405006;19;1446;-70
2022/11/30 04:09:16;;;;;;;;;;;;;;;17.89;64.12;101612.78;7404966;19;1597;-73
2022/11/30 04:11:45;;;;;;;;;;;;;;;17.83;64.06;101613.22;7406117;19;1715;-80
2022/11/30 04:14:13;;;;;;;;;;;;;;;17.85;64.25;101616.63;7404696;19;1849;-80
2022/11/30 04:16:41;;;;;;;;;;;;;;;17.79;64.33;101635.75;7403230;19;1648;-71
2022/11/30 04:19:10;;;;;;;;;;;;;;;17.74;64.71;101623.66;7406264;19;1605;-76
2022/11/30 04:21:38;;;;;;;;;;;;;;;17.70;65.27;101623.00;7403032;19;1517;-71
2022/11/30 04:24:07;;;;;;;;;;;;;;;17.67;64.97;101617.91;7405279;19;1605;-76
2022/11/30 04:26:38;;;;;;;;;;;;;;;17.64;65.58;101618.09;7405034;19;1683;-71
2022/11/30 04:29:06;;;;;;;;;;;;;;;17.64;65.34;101626.13;7405015;19;1676;-76
2022/11/30 04:31:36;;;;;;;;;;;;;;;18.13;64.25;101619.19;7404912;19;1501;-71
2022/11/30 04:34:04;;;;;;;;;;;;;;;19.17;61.62;101608.03;7404231;19;1846;-71
2022/11/30 04:36:33;;;;;;;;;;;;;;;19.78;59.91;101614.09;7403650;19;1530;-71
2022/11/30 04:39:01;;;;;;;;;;;;;;;19.85;60.12;101622.50;7404776;19;1470;-76
2022/11/30 04:41:30;;;;;;;;;;;;;;;19.92;59.96;101620.22;7405893;19;1526;-75
2022/11/30 04:44:01;;;;;;;;;;;;;;;20.06;59.72;101626.19;7403548;19;1613;-70
2022/11/30 04:46:29;;;;;;;;;;;;;;;20.10;59.88;101626.81;7404460;19;1479;-70
2022/11/30 04:48:57;;;;;;;;;;;;;;;19.54;61.19;101624.88;7403628;19;1629;-71
2022/11/30 04:51:25;;;;;;;;;;;;;;;18.83;63.39;101645.41;7404480;19;1608;-72
2022/11/30 04:53:54;;;;;;;;;;;;;;;18.44;64.57;101621.41;7405025;19;1864;-72
2022/11/30 04:56:22;;;;;;;;;;;;;;;18.23;65.45;101630.97;7404977;19;1640;-77
2022/11/30 04:58:50;;;;;;;;;;;;;;;18.08;65.47;101631.09;7404224;19;1617;-73
2022/11/30 05:01:21;;;;;;;;;;;;;;;17.99;65.59;101628.19;7403555;19;1731;-73
2022/11/30 05:03:50;;;;;;;;;;;;;;;17.94;65.81;101630.34;7403018;19;1726;-76
2022/11/30 05:06:18;;;;;;;;;;;;;;;17.89;66.19;101636.88;7401883;19;1714;-72
2022/11/30 05:08:46;;;;;;;;;;;;;;;17.82;66.43;101622.16;7404352;19;1630;-72
2022/11/30 05:11:14;;;;;;;;;;;;;;;17.78;66.76;101615.31;7405037;19;1546;-73
2022/11/30 05:13:43;;;;;;;;;;;;;;;17.75;66.28;101636.09;7401384;19;1858;-69
2022/11/30 05:16:12;;;;;;;;;;;;;;;17.73;66.83;101644.22;7403726;19;1581;-69
2022/11/30 05:18:43;;;;;;;;;;;;;;;17.68;67.08;101641.00;7401598;19;1565;-70
2022/11/30 05:21:11;;;;;;;;;;;;;;;17.67;66.89;101641.97;7401745;19;1525;-69
2022/11/30 05:23:39;;;;;;;;;;;;;;;17.67;66.91;101639.28;7400842;19;1455;-69
2022/11/30 05:26:08;;;;;;;;;;;;;;;17.62;66.90;101638.75;7403321;19;1735;-69
2022/11/30 05:28:36;;;;;;;;;;;;;;;17.58;66.95;101645.25;7402047;19;1600;-69
2022/11/30 05:31:04;;;;;;;;;;;;;;;17.58;66.80;101661.31;7402369;19;1676;-70
2022/11/30 05:33:33;;;;;;;;;;;;;;;17.55;67.20;101641.00;7402581;19;1865;-70
2022/11/30 05:36:04;;;;;;;;;;;;;;;17.52;67.29;101653.72;7402803;19;1563;-69
2022/11/30 05:38:32;;;;;;;;;;;;;;;17.58;67.04;101666.66;7401080;19;1256;-70
2022/11/30 05:41:01;;;;;;;;;;;;;;;17.81;67.12;101654.41;7402885;19;1447;-69
2022/11/30 05:43:30;;;;;;;;;;;;;;;18.85;63.81;101652.34;7402051;19;1636;-71
2022/11/30 05:46:00;;;;;;;;;;;;;;;19.62;61.81;101659.16;7401599;19;1574;-69
2022/11/30 05:48:29;;;;;;;;;;;;;;;19.78;61.17;101669.59;7401493;19;1577;-68
2022/11/30 05:50:57;;;;;;;;;;;;;;;19.85;61.07;101674.34;7402899;19;1518;-67
2022/11/30 05:53:28;;;;;;;;;;;;;;;19.94;60.94;101647.78;7400758;19;1850;-68
2022/11/30 05:55:56;;;;;;;;;;;;;;;19.93;60.89;101663.00;7402867;19;1692;-70
2022/11/30 05:58:25;;;;;;;;;;;;;;;19.45;62.35;101679.22;7402746;19;1519;-70
2022/11/30 06:00:53;;;;;;;;;;;;;;;18.84;64.33;101679.25;7399224;19;12651;-70
2022/11/30 06:03:22;;;;;;;;;;;;;;;18.42;65.61;101690.28;7329949;19;1772;-68
2022/11/30 06:05:52;;;;;;;;;;;;;;;18.17;66.30;101680.44;7397233;19;1445;-77
2022/11/30 06:08:21;;;;;;;;;;;;;;;18.04;66.51;101701.84;7399882;19;1683;-77
2022/11/30 06:10:52;;;;;;;;;;;;;;;17.95;66.89;101702.50;7403041;19;1347;-67
2022/11/30 06:13:20;;;;;;;;;;;;;;;17.91;67.00;101705.50;7401026;19;1641;-73
2022/11/30 06:15:49;;;;;;;;;;;;;;;17.89;67.08;101713.63;7398232;19;1826;-72
2022/11/30 06:18:17;;;;;;;;;;;;;;;18.08;67.36;101718.53;7400416;19;1274;-75
2022/11/30 06:20:47;;;;;;;;;;;;;;;18.95;65.27;101708.81;7398107;19;1533;-74
2022/11/30 06:23:15;;;;;;;;;;;;;;;19.90;62.51;101726.84;7401629;19;1529;-73
2022/11/30 06:25:44;;;;;;;;;;;;;;;20.56;60.98;101710.91;7402223;19;1431;-72
2022/11/30 06:28:14;;;;;;;;;;;;;;;20.41;61.07;101724.59;7398165;19;1675;-75
2022/11/30 06:30:43;;;;;;;;;;;;;;;20.19;61.64;101725.44;7401525;19;1477;-66
2022/11/30 06:33:11;;;;;;;;;;;;;;;20.20;62.12;101719.09;7401287;19;1636;-69
2022/11/30 06:35:45;;;;;;;;;;;;;;;20.30;61.42;101729.97;7399447;19;1842;-70
2022/11/30 06:38:14;;;;;;;;;;;;;;;19.88;61.79;101728.78;7401474;19;1439;-72
2022/11/30 06:40:42;;;;;;;;;;;;;;;19.25;63.96;101737.03;7401064;19;1649;-71
2022/11/30 06:43:11;;;;;;;;;;;;;;;18.76;65.10;101729.84;7397469;19;1684;-74
2022/11/30 06:45:44;;;;;;;;;;;;;;;18.57;65.45;101736.53;7399634;19;1466;-71
2022/11/30 06:48:12;;;;;;;;;;;;;;;18.42;66.46;101729.56;7399587;19;1593;-76
2022/11/30 06:50:41;;;;;;;;;;;;;;;18.36;66.68;101721.97;7404659;19;1411;-73
2022/11/30 06:53:09;;;;;;;;;;;;;;;18.35;66.53;101707.72;7408986;19;1590;-72
2022/11/30 06:55:38;;;;;;;;;;;;;;;19.07;64.62;101718.63;7404063;19;1844;-68
2022/11/30 06:58:07;;;;;;;;;;;;;;;19.91;62.89;101720.50;7405624;19;1668;-67
2022/11/30 07:00:35;;;;;;;;;;;;;;;19.70;63.38;101715.78;7406931;19;1295;-71
2022/11/30 07:03:06;;;;;;;;;;;;;;;19.44;63.92;101715.91;7406801;19;1284;-70
2022/11/30 07:05:36;;;;;;;;;;;;;;;19.38;64.39;101735.16;7407805;19;1354;-72
2022/11/30 07:08:04;;;;;;;;;;;;;;;19.37;64.66;101735.25;7406414;19;1553;-70
2022/11/30 07:10:33;;;;;;;;;;;;;;;19.74;63.65;101743.28;7407206;19;1519;-69
2022/11/30 07:13:01;;;;;;;;;;;;;;;20.04;62.63;101738.22;7403729;19;1728;-70
2022/11/30 07:15:29;;;;;;;;;;;;;;;20.08;63.14;101743.38;7404656;19;1860;-69
2022/11/30 07:18:01;;;;;;;;;;;;;;;19.18;65.54;101751.84;7406483;19;1494;-68
2022/11/30 07:20:32;;;;;;;;;;;;;;;18.75;67.20;101739.72;7405576;19;1407;-70
2022/11/30 07:26:05;;;;;;;;;;;;;;;18.51;68.02;101753.03;7407143;19;1466;-68
2022/11/30 07:28:31;;;;;;;;;;;;;;;18.37;68.21;101723.69;7407546;19;1494;-76
2022/11/30 07:30:59;;;;;;;;;;;;;;;18.37;68.42;101710.31;7406062;19;1323;-69
2022/11/30 07:33:27;;;;;;;;;;;;;;;18.35;68.30;101720.28;7404544;19;1401;-67
2022/11/30 07:35:58;;;;;;;;;;;;;;;18.27;68.40;101724.34;7403121;19;1838;-68
2022/11/30 07:38:27;;;;;;;;;;;;;;;18.22;68.97;101737.19;7406107;19;1533;-72
2022/11/30 07:40:55;;;;;;;;;;;;;;;18.15;68.97;101727.03;7404650;19;1514;-73
2022/11/30 07:43:24;;;;;;;;;;;;;;;18.09;69.23;101731.81;7405645;19;1553;-73
2022/11/30 07:45:53;;;;;;;;;;;;;;;18.11;68.92;101737.09;7406273;19;1389;-66
2022/11/30 07:48:22;;;;;;;;;;;;;;;18.02;68.91;101729.66;7406260;19;1537;-66
2022/11/30 07:50:51;;;;;;;;;;;;;;;18.29;69.05;101738.47;7405279;19;1542;-65
2022/11/30 07:53:22;;;;;;;;;;;;;;;19.20;66.42;101739.19;7405442;19;1718;-65
2022/11/30 07:55:50;;;;;;;;;;;;;;;19.69;64.33;101732.81;7404630;19;1876;-67
2022/11/30 07:58:18;;;;;;;;;;;;;;;20.00;63.80;101730.53;7404990;19;1573;-65
2022/11/30 08:00:46;;;;;;;;;;;;;;;20.06;63.92;101741.63;7401961;19;1541;-70
2022/11/30 08:03:15;;;;;;;;;;;;;;;20.31;63.10;101728.13;7402532;19;1636;-68
2022/11/30 08:05:43;;;;;;;;;;;;;;;20.34;63.09;101719.84;7403605;19;1471;-65
2022/11/30 08:08:11;;;;;;;;;;;;;;;20.35;63.62;101734.97;7404913;19;1636;-69
2022/11/30 08:10:42;;;;;;;;;;;;;;;20.52;63.57;101722.91;7405399;19;1443;-67
2022/11/30 08:13:11;;;;;;;;;;;;;;;20.62;63.52;101724.75;7403658;19;1757;-74
2022/11/30 08:15:39;;;;;;;;;;;;;;;19.74;66.24;101724.47;7403652;19;1880;-63
2022/11/30 08:18:07;;;;;;;;;;;;;;;19.24;68.22;101732.66;7404342;19;1651;-66
2022/11/30 08:20:37;;;;;;;;;;;;;;;18.97;69.85;101728.31;7402143;19;1585;-76
2022/11/30 08:23:05;;;;;;;;;;;;;;;18.92;70.14;101740.34;7404309;19;1486;-63
2022/11/30 08:25:35;;;;;;;;;;;;;;;18.83;71.27;101740.03;7404535;19;1358;-63
2022/11/30 08:28:06;;;;;;;;;;;;;;;18.78;70.98;101735.94;7404651;19;1297;-77
2022/11/30 08:30:35;;;;;;;;;;;;;;;18.72;69.94;101726.56;7404508;19;1442;-62
2022/11/30 08:33:03;;;;;;;;;;;;;;;18.74;71.39;101738.03;7403653;19;1654;-64
2022/11/30 08:35:31;;;;;;;;;;;;;;;18.75;71.40;101729.00;7402719;19;1849;-68
2022/11/30 08:38:00;;;;;;;;;;;;;;;18.64;70.94;101748.53;7405081;19;1696;-67
2022/11/30 08:40:28;;;;;;;;;;;;;;;18.62;71.71;101737.06;7405243;19;1677;-62
2022/11/30 08:42:57;;;;;;;;;;;;;;;18.61;71.49;101738.03;7403786;19;1602;-59
2022/11/30 08:45:27;;;;;;;;;;;;;;;18.58;71.44;101743.63;7402533;19;1775;-69
2022/11/30 08:47:56;;;;;;;;;;;;;;;18.52;71.18;101733.31;7404737;19;1533;-63
2022/11/30 08:50:24;;;;;;;;;;;;;;;18.72;72.08;101744.44;7403878;19;1696;-69
2022/11/30 08:52:55;;;;;;;;;;;;;;;19.69;68.08;101727.47;7405843;19;1457;-70
2022/11/30 08:55:23;;;;;;;;;;;;;;;20.43;66.11;101732.53;7403201;19;1854;-70
2022/11/30 08:57:51;;;;;;;;;;;;;;;20.73;65.74;101728.41;7402877;19;1708;-65
2022/11/30 09:00:20;;;;;;;;;;;;;;;20.44;66.55;101731.56;7404053;19;1684;-66
2022/11/30 09:02:51;;;;;;;;;;;;;;;19.70;68.29;101734.56;7405209;19;1295;-69
2022/11/30 09:05:19;;;;;;;;;;;;;;;19.26;68.84;101739.59;7401044;19;1573;-68
2022/11/30 09:07:48;;;;;;;;;;;;;;;18.91;69.92;101736.81;7402298;19;1661;-66
2022/11/30 09:10:16;;;;;;;;;;;;;;;18.69;70.29;101724.09;7403327;19;1728;-65
2022/11/30 09:12:44;;;;;;;;;;;;;;;18.73;70.74;101724.72;7400948;19;1458;-69
2022/11/30 09:15:13;;;;;;;;;;;;;;;18.66;70.48;101729.66;7400368;19;1857;-63
2022/11/30 09:17:41;;;;;;;;;;;;;;;18.64;71.78;101729.78;7404059;19;1459;-65
2022/11/30 09:20:13;;;;;;;;;;;;;;;18.67;71.67;101732.22;7401865;19;1586;-67
2022/11/30 09:22:41;;;;;;;;;;;;;;;18.61;71.50;101723.78;7403042;19;1681;-65
2022/11/30 09:25:11;;;;;;;;;;;;;;;18.48;72.11;101713.94;7401189;19;1554;-65
2022/11/30 09:27:39;;;;;;;;;;;;;;;18.50;71.68;101703.09;7402280;19;1435;-65
2022/11/30 09:30:08;;;;;;;;;;;;;;;18.38;70.63;101707.53;7401614;19;1550;-63
2022/11/30 09:32:37;;;;;;;;;;;;;;;18.31;71.20;101694.69;7402974;19;1787;-62
2022/11/30 09:35:06;;;;;;;;;;;;;;;18.25;71.05;101698.66;7400487;19;1845;-65
2022/11/30 09:37:37;;;;;;;;;;;;;;;18.32;71.38;101704.41;7402672;19;1164;-64
2022/11/30 09:40:06;;;;;;;;;;;;;;;19.10;68.62;101700.63;7401484;19;1529;-69
2022/11/30 09:42:43;;;;;;;;;;;;;;;19.91;65.98;101691.81;7401254;19;1509;-65
2022/11/30 09:45:15;;;;;;;;;;;;;;;20.34;64.81;101672.34;7400736;19;1292;-67
2022/11/30 09:47:57;;;;;;;;;;;;;;;20.56;64.23;101700.19;7401755;19;1261;-62
2022/11/30 09:50:27;;;;;;;;;;;;;;;20.32;65.34;101706.53;7403943;19;930;-64
2022/11/30 09:53:00;;;;;;;;;;;;;;;20.31;65.37;101707.47;7402282;19;1236;-65
2022/11/30 09:55:30;;;;;;;;;;;;;;;20.31;65.38;101707.47;7400622;19;1842;-69
2022/11/30 09:58:00;;;;;;;;;;;;;;;19.75;66.01;101654.56;7402049;19;1365;-70
2022/11/30 10:00:28;;;;;;;;;;;;;;;19.63;67.99;101714.50;7400529;19;1299;-67
2022/11/30 10:02:58;;;;;;;;;;;;;;;19.31;69.66;101720.47;7400872;19;1358;-67
2022/11/30 10:05:29;;;;;;;;;;;;;;;19.07;71.07;101718.63;7402824;19;1518;-67
2022/11/30 10:08:15;;;;;;;;;;;;;;;18.97;71.32;101722.97;7402804;19;1683;-70
2022/11/30 10:10:47;;;;;;;;;;;;;;;18.96;71.47;101707.00;7400870;19;1787;-70
2022/11/30 10:13:26;;;;;;;;;;;;;;;18.91;71.85;101718.06;7401358;19;1585;-68
2022/11/30 10:16:02;;;;;;;;;;;;;;;18.88;71.14;101707.56;7400655;19;1845;-67
2022/11/30 10:18:38;;;;;;;;;;;;;;;18.91;72.06;101693.09;7401669;19;1513;-66
2022/11/30 10:21:14;;;;;;;;;;;;;;;18.86;72.89;101696.09;7396544;19;1703;-64
2022/11/30 10:23:52;;;;;;;;;;;;;;;18.75;73.03;101702.19;7401494;19;1314;-69
2022/11/30 10:26:27;;;;;;;;;;;;;;;18.51;72.83;101674.50;7408579;19;1664;-60
2022/11/30 10:28:56;;;;;;;;;;;;;;;18.73;72.87;101705.97;7406839;19;1327;-67
2022/11/30 10:31:30;;;;;;;;;;;;;;;18.59;72.52;101693.56;7405390;19;1652;-66
2022/11/30 10:34:00;;;;;;;;;;;;;;;18.46;72.83;101702.47;7408519;19;1585;-68
2022/11/30 10:36:31;;;;;;;;;;;;;;;18.56;73.14;101700.00;7406697;19;1863;-64
2022/11/30 10:39:02;;;;;;;;;;;;;;;18.62;72.18;101664.75;7407742;19;1637;-61
2022/11/30 10:41:36;;;;;;;;;;;;;;;19.01;71.53;101691.44;7406405;19;1533;-68
2022/11/30 10:44:07;;;;;;;;;;;;;;;18.92;71.37;101694.78;7406714;19;1752;-67
2022/11/30 10:46:39;;;;;;;;;;;;;;;18.63;71.79;101687.03;7408316;19;1556;-69
2022/11/30 10:49:09;;;;;;;;;;;;;;;18.55;71.81;101682.22;7405407;19;1392;-67
2022/11/30 10:51:39;;;;;;;;;;;;;;;18.53;72.17;101686.81;7407775;19;1236;-68
2022/11/30 10:54:15;;;;;;;;;;;;;;;18.60;71.59;101676.50;7406994;19;1353;-64
2022/11/30 10:56:46;;;;;;;;;;;;;;;18.61;71.55;101672.88;7405670;19;1867;-64
2022/11/30 10:59:20;;;;;;;;;;;;;;;18.49;71.73;101666.59;7407754;19;1148;-66
2022/11/30 11:01:48;;;;;;;;;;;;;;;18.41;72.02;101669.81;7405787;19;1640;-69
2022/11/30 11:04:18;;;;;;;;;;;;;;;18.38;72.08;101678.06;7408693;19;1459;-62
2022/11/30 11:06:47;;;;;;;;;;;;;;;18.41;71.93;101664.44;7407349;19;1300;-63
2022/11/30 11:09:26;;;;;;;;;;;;;;;18.36;72.16;101679.13;7406779;19;1466;-63
2022/11/30 11:11:58;;;;;;;;;;;;;;;18.29;71.67;101668.84;7407416;19;1363;-62
2022/11/30 11:14:27;;;;;;;;;;;;;;;18.20;72.40;101674.84;7407703;19;1478;-60
2022/11/30 11:16:59;;;;;;;;;;;;;;;18.40;71.48;101678.81;7403777;19;1858;-59
2022/11/30 11:19:33;;;;;;;;;;;;;;;18.62;71.02;101663.84;7405610;19;1512;-75
2022/11/30 11:22:03;;;;;;;;;;;;;;;19.18;69.24;101698.22;7406485;19;1505;-60
2022/11/30 11:24:31;;;;;;;;;;;;;;;19.85;67.18;101663.59;7404445;19;1280;-61
2022/11/30 11:27:02;;;;;;;;;;;;;;;20.13;65.95;101664.13;7408146;19;1463;-71
2022/11/30 11:29:33;;;;;;;;;;;;;;;20.15;65.91;101662.19;7407169;19;1632;-70
2022/11/30 11:32:29;;;;;;;;;;;;;;;20.34;65.31;101676.84;7407971;19;1684;-74
2022/11/30 11:34:57;;;;;;;;;;;;;;;20.19;65.99;101663.69;7403243;19;1953;-76
2022/11/30 11:37:29;;;;;;;;;;;;;;;20.12;65.85;101661.59;7403241;19;1849;-61
2022/11/30 11:39:59;;;;;;;;;;;;;;;20.29;65.57;101681.72;7407341;19;1604;-61
2022/11/30 11:42:32;;;;;;;;;;;;;;;20.23;65.38;101675.88;7405088;19;1321;-71
2022/11/30 11:45:02;;;;;;;;;;;;;;;20.13;65.74;101669.50;7406634;19;1640;-72
2022/11/30 11:47:34;;;;;;;;;;;;;;;19.98;65.96;101676.09;7408218;19;1686;-72
2022/11/30 11:50:07;;;;;;;;;;;;;;;19.26;68.17;101675.25;7404521;19;1521;-61
2022/11/30 11:52:35;;;;;;;;;;;;;;;18.84;69.51;101663.19;7407222;19;1447;-62
2022/11/30 11:55:05;;;;;;;;;;;;;;;18.62;70.28;101690.66;7405929;19;1641;-62
2022/11/30 11:57:40;;;;;;;;;;;;;;;18.61;70.35;101689.81;7404846;19;1857;-62
2022/11/30 12:00:16;;;;;;;;;;;;;;;18.51;70.99;101686.06;7407245;19;1628;-61
2022/11/30 12:02:50;;;;;;;;;;;;;;;18.42;70.84;101694.75;7405168;19;1162;-71
2022/11/30 12:05:23;;;;;;;;;;;;;;;18.38;70.95;101698.63;7406849;19;953;-62
2022/11/30 12:07:55;;;;;;;;;;;;;;;18.44;71.00;101692.81;7401396;19;1764;-61
2022/11/30 12:10:26;;;;;;;;;;;;;;;18.50;70.71;101687.03;7403948;19;1581;-62
2022/11/30 12:12:58;;;;;;;;;;;;;;;18.43;70.93;101685.78;7400703;19;1476;-60
2022/11/30 12:15:30;;;;;;;;;;;;;;;18.34;70.78;101697.13;7406441;19;1869;-60
2022/11/30 12:18:02;;;;;;;;;;;;;;;18.27;71.28;101692.19;7404569;19;1443;-64
2022/11/30 12:20:37;;;;;;;;;;;;;;;18.52;70.67;101674.38;7403917;19;1497;-59
2022/11/30 12:23:13;;;;;;;;;;;;;;;19.59;67.08;101670.97;7404398;19;1474;-59
2022/11/30 12:25:43;;;;;;;;;;;;;;;20.25;65.21;101684.66;7403919;19;1471;-59
2022/11/30 12:28:21;;;;;;;;;;;;;;;20.21;65.06;101680.53;7399567;19;1680;-74
2022/11/30 12:30:57;;;;;;;;;;;;;;;19.94;65.98;101685.38;7405267;19;1439;-60
2022/11/30 12:33:32;;;;;;;;;;;;;;;19.83;66.36;101695.09;7405385;19;1340;-60
2022/11/30 12:36:03;;;;;;;;;;;;;;;20.02;65.82;101675.72;7405148;19;1823;-64
2022/11/30 12:38:36;;;;;;;;;;;;;;;19.76;66.43;101687.66;7403266;19;1554;-58
2022/11/30 12:41:08;;;;;;;;;;;;;;;19.17;68.21;101699.19;7406697;19;1256;-59
2022/11/30 12:43:45;;;;;;;;;;;;;;;18.72;68.75;101693.53;7406247;19;1546;-61
2022/11/30 12:46:17;;;;;;;;;;;;;;;18.47;70.19;101697.97;7401726;19;1630;-60
2022/11/30 12:48:49;;;;;;;;;;;;;;;18.42;70.50;101700.09;7401933;19;1215;-60
2022/11/30 12:51:21;;;;;;;;;;;;;;;18.37;70.45;101713.00;7404425;19;1601;-59
2022/11/30 12:53:56;;;;;;;;;;;;;;;18.29;70.75;101703.66;7404988;19;1337;-75
2022/11/30 12:56:32;;;;;;;;;;;;;;;18.19;69.32;101701.75;7402870;19;1862;-74
2022/11/30 12:59:08;;;;;;;;;;;;;;;18.16;70.54;101716.19;7404141;19;1363;-59
2022/11/30 13:01:48;;;;;;;;;;;;;;;18.18;70.76;101708.06;7403456;19;1369;-71
2022/11/30 13:04:20;;;;;;;;;;;;;;;18.15;70.77;101698.44;7405064;19;1421;-70
2022/11/30 13:06:50;;;;;;;;;;;;;;;18.12;70.62;101717.38;7404022;19;1534;-71